Time;durP1;ratioP1;P1;durP2;ratioP2;P2;SDS_P1;SDS_P2;PMS_P1;PMS_P2;Temp;Humidity;BMP_temperature;BMP_pressure;BME280_temperature;BME280_humidity;BME280_pressure;Samples;Min_cycle;Max_cycle;Signal;HPM_P1;HPM_P2
2024/04/02 00:00:40;;;;;;;;;;;;;;;19.80;49.67;99441.53;2056161;28;6228;-69
2024/04/02 00:01:40;;;;;;;;;;;;;;;19.81;49.51;99434.41;2049068;28;2210;-68
2024/04/02 00:02:40;;;;;;;;;;;;;;;19.80;49.68;99432.19;2051508;28;2324;-68
2024/04/02 00:03:44;;;;;;;;;;;;;;;19.79;49.70;99436.47;2054871;28;1649;-69
2024/04/02 00:04:44;;;;;;;;;;;;;;;19.80;49.45;99443.69;2054089;28;2365;-69
2024/04/02 00:05:45;;;;;;;;;;;;;;;19.80;49.31;99435.06;2062117;28;2390;-68
2024/04/02 00:06:45;;;;;;;;;;;;;;;19.79;49.42;99434.34;2057413;28;2654;-68
2024/04/02 00:07:46;;;;;;;;;;;;;;;19.80;49.59;99437.94;2053439;28;2262;-68
2024/04/02 00:08:46;;;;;;;;;;;;;;;19.80;49.57;99435.06;2053992;28;2238;-69
2024/04/02 00:09:46;;;;;;;;;;;;;;;19.80;49.58;99437.94;2059362;28;2601;-68
2024/04/02 00:10:47;;;;;;;;;;;;;;;19.79;49.61;99440.09;2060264;28;2681;-67
2024/04/02 00:11:47;;;;;;;;;;;;;;;19.79;49.60;99430.72;2057372;28;2880;-69
2024/04/02 00:12:47;;;;;;;;;;;;;;;19.79;49.58;99440.09;2050894;28;2396;-69
2024/04/02 00:13:48;;;;;;;;;;;;;;;19.79;49.45;99436.47;2053064;28;1667;-69
2024/04/02 00:14:48;;;;;;;;;;;;;;;19.78;49.55;99429.28;2058449;28;1767;-69
2024/04/02 00:15:49;;;;;;;;;;;;;;;19.77;49.54;99445.78;2055129;28;2603;-69
2024/04/02 00:16:49;;;;;;;;;;;;;;;19.78;49.51;99440.75;2049606;28;2506;-68
2024/04/02 00:17:51;;;;;;;;;;;;;;;19.78;49.39;99440.75;2057774;28;1909;-68
2024/04/02 00:18:52;;;;;;;;;;;;;;;19.78;49.49;99458.00;2055938;28;3008;-69
2024/04/02 00:19:53;;;;;;;;;;;;;;;19.78;49.42;99449.38;2052030;28;2541;-69
2024/04/02 00:20:58;;;;;;;;;;;;;;;19.77;49.30;99445.03;2054772;28;2579;-69
2024/04/02 00:21:58;;;;;;;;;;;;;;;19.77;49.52;99445.78;2052293;28;2536;-69
2024/04/02 00:22:59;;;;;;;;;;;;;;;19.77;49.33;99447.91;2052504;28;2324;-69
2024/04/02 00:23:59;;;;;;;;;;;;;;;19.77;49.33;99436.41;2051369;28;2481;-69
2024/04/02 00:25:00;;;;;;;;;;;;;;;19.76;49.37;99443.56;2060883;28;1870;-68
2024/04/02 00:26:01;;;;;;;;;;;;;;;19.76;49.36;99443.56;2056518;28;2369;-68
2024/04/02 00:27:01;;;;;;;;;;;;;;;19.76;49.42;99449.31;2052906;28;2952;-69
2024/04/02 00:28:02;;;;;;;;;;;;;;;19.75;49.40;99448.59;2051131;28;2615;-69
2024/04/02 00:29:03;;;;;;;;;;;;;;;19.76;49.26;99446.44;2055214;28;1794;-69
2024/04/02 00:30:04;;;;;;;;;;;;;;;19.77;49.29;99445.03;2050847;28;6019;-68
2024/04/02 00:31:06;;;;;;;;;;;;;;;19.76;49.45;99455.78;2060592;28;2787;-68
2024/04/02 00:32:06;;;;;;;;;;;;;;;19.76;49.26;99457.94;2060336;28;2016;-69
2024/04/02 00:33:07;;;;;;;;;;;;;;;19.75;49.25;99447.88;2050275;28;2304;-69
2024/04/02 00:34:07;;;;;;;;;;;;;;;19.75;49.34;99442.84;2048567;28;3224;-67
2024/04/02 00:35:07;;;;;;;;;;;;;;;19.76;49.28;99455.78;2049953;28;2702;-68
2024/04/02 00:36:08;;;;;;;;;;;;;;;19.76;49.22;99452.19;2058339;28;2475;-68
2024/04/02 00:37:08;;;;;;;;;;;;;;;19.77;49.27;99453.66;2062380;28;1750;-68
2024/04/02 00:38:09;;;;;;;;;;;;;;;19.77;49.17;99450.78;2060330;28;2501;-69
2024/04/02 00:39:09;;;;;;;;;;;;;;;19.76;49.23;99452.19;2056564;28;1939;-68
2024/04/02 00:40:10;;;;;;;;;;;;;;;19.75;49.26;99453.63;2050252;28;2600;-68
2024/04/02 00:41:10;;;;;;;;;;;;;;;19.77;49.21;99456.53;2053932;28;1699;-68
2024/04/02 00:42:10;;;;;;;;;;;;;;;19.75;49.22;99454.34;2053527;28;2619;-69
2024/04/02 00:43:11;;;;;;;;;;;;;;;19.75;49.16;99465.84;2052739;28;2210;-69
2024/04/02 00:44:12;;;;;;;;;;;;;;;19.75;49.28;99460.09;2052029;28;3001;-68
2024/04/02 00:45:13;;;;;;;;;;;;;;;19.75;49.40;99465.09;2051056;28;2608;-68
2024/04/02 00:46:13;;;;;;;;;;;;;;;19.74;49.29;99464.34;2053538;28;2923;-69
2024/04/02 00:47:14;;;;;;;;;;;;;;;19.75;49.33;99470.84;2057444;28;1647;-69
2024/04/02 00:48:15;;;;;;;;;;;;;;;19.75;49.23;99470.84;2059331;28;2419;-69
2024/04/02 00:49:15;;;;;;;;;;;;;;;19.74;49.20;99470.09;2049152;28;2203;-68
2024/04/02 00:50:16;;;;;;;;;;;;;;;19.74;49.21;99478.72;2051103;28;2362;-69
2024/04/02 00:51:16;;;;;;;;;;;;;;;19.74;49.22;99480.84;2053427;28;1973;-69
2024/04/02 00:52:16;;;;;;;;;;;;;;;19.75;49.23;99476.59;2049883;28;2424;-68
2024/04/02 00:53:19;;;;;;;;;;;;;;;19.75;49.13;99483.06;2058048;28;2678;-69
2024/04/02 00:54:20;;;;;;;;;;;;;;;19.75;49.20;99476.59;2056692;28;2407;-69
2024/04/02 00:55:20;;;;;;;;;;;;;;;19.74;49.28;99478.72;2055547;28;2710;-68
2024/04/02 00:56:21;;;;;;;;;;;;;;;19.75;49.29;99488.09;2055007;28;2643;-68
2024/04/02 00:57:22;;;;;;;;;;;;;;;19.73;49.27;99485.88;2050972;28;2434;-69
2024/04/02 00:58:23;;;;;;;;;;;;;;;19.74;49.35;99487.31;2050718;28;2733;-69
2024/04/02 00:59:24;;;;;;;;;;;;;;;19.74;49.18;99492.34;2058888;28;2604;-70
2024/04/02 01:00:24;;;;;;;;;;;;;;;19.73;49.27;99497.38;2055621;28;7244;-69
2024/04/02 01:01:25;;;;;;;;;;;;;;;19.74;49.12;99492.34;2049424;28;2410;-69
2024/04/02 01:02:25;;;;;;;;;;;;;;;19.74;49.25;99486.59;2049212;28;2923;-69
2024/04/02 01:03:25;;;;;;;;;;;;;;;19.73;49.14;99490.91;2049256;28;2433;-68
2024/04/02 01:04:26;;;;;;;;;;;;;;;19.73;49.23;99488.75;2059962;28;2372;-69
2024/04/02 01:05:26;;;;;;;;;;;;;;;19.72;49.36;99495.88;2049376;28;2546;-68
2024/04/02 01:06:27;;;;;;;;;;;;;;;19.72;49.20;99483.66;2040668;28;2687;-69
2024/04/02 01:07:27;;;;;;;;;;;;;;;19.73;49.25;99485.16;2059809;28;2252;-68
2024/04/02 01:08:27;;;;;;;;;;;;;;;19.71;49.23;99485.09;2057158;28;2292;-69
2024/04/02 01:09:29;;;;;;;;;;;;;;;19.73;49.21;99480.13;2049483;28;2023;-69
2024/04/02 01:10:33;;;;;;;;;;;;;;;19.73;49.16;99485.16;2050331;28;2552;-69
2024/04/02 01:11:35;;;;;;;;;;;;;;;19.73;49.24;99479.41;2050671;28;2555;-68
2024/04/02 01:12:35;;;;;;;;;;;;;;;19.73;49.29;99479.41;2051839;28;2535;-69
2024/04/02 01:13:36;;;;;;;;;;;;;;;19.73;49.35;99476.53;2050938;28;2333;-69
2024/04/02 01:14:37;;;;;;;;;;;;;;;19.72;49.30;99475.06;2057964;28;2501;-70
2024/04/02 01:15:37;;;;;;;;;;;;;;;19.71;49.36;99476.47;2052563;28;2655;-68
2024/04/02 01:16:41;;;;;;;;;;;;;;;19.70;49.30;99475.00;2051881;28;2064;-68
2024/04/02 01:17:42;;;;;;;;;;;;;;;19.71;49.33;99470.72;2053076;28;1858;-69
2024/04/02 01:18:45;;;;;;;;;;;;;;;19.71;49.19;99470.72;2050497;28;2488;-68
2024/04/02 01:19:45;;;;;;;;;;;;;;;19.71;49.32;99470.72;2053686;28;1965;-68
2024/04/02 01:20:46;;;;;;;;;;;;;;;19.70;49.17;99475.00;2059819;28;2700;-69
2024/04/02 01:21:46;;;;;;;;;;;;;;;19.70;49.14;99472.13;2059405;28;1774;-69
2024/04/02 01:22:47;;;;;;;;;;;;;;;19.69;49.10;99471.41;2055693;28;1964;-68
2024/04/02 01:23:47;;;;;;;;;;;;;;;19.72;49.34;99472.19;2055025;28;1767;-68
2024/04/02 01:24:55;;;;;;;;;;;;;;;19.70;49.27;99469.25;2051427;28;2428;-69
2024/04/02 01:25:55;;;;;;;;;;;;;;;19.70;49.25;99472.88;2053707;28;1852;-69
2024/04/02 01:26:56;;;;;;;;;;;;;;;19.69;49.33;99474.28;2058865;28;2768;-69
2024/04/02 01:27:56;;;;;;;;;;;;;;;19.70;49.14;99481.50;2054041;28;2782;-69
2024/04/02 01:29:03;;;;;;;;;;;;;;;19.70;49.21;99475.00;2048120;28;2687;-68
2024/04/02 01:30:04;;;;;;;;;;;;;;;19.69;49.23;99474.28;2057753;28;6131;-69
2024/04/02 01:31:04;;;;;;;;;;;;;;;19.70;49.17;99480.75;2056458;28;2778;-69
2024/04/02 01:32:05;;;;;;;;;;;;;;;19.70;49.11;99480.75;2058461;28;1911;-69
2024/04/02 01:33:05;;;;;;;;;;;;;;;19.71;49.15;99482.22;2054891;28;2081;-69
2024/04/02 01:34:07;;;;;;;;;;;;;;;19.69;49.32;99488.63;2053811;28;1720;-69
2024/04/02 01:35:07;;;;;;;;;;;;;;;19.70;49.19;99489.34;2058518;28;3042;-68
2024/04/02 01:36:07;;;;;;;;;;;;;;;19.69;49.19;99491.50;2067039;28;1729;-69
2024/04/02 01:37:08;;;;;;;;;;;;;;;19.69;49.29;99488.63;2055684;28;2649;-68
2024/04/02 01:38:08;;;;;;;;;;;;;;;19.70;49.16;99492.22;2050453;28;2371;-69
2024/04/02 01:39:08;;;;;;;;;;;;;;;19.69;49.20;99491.50;2060153;28;2628;-68
2024/04/02 01:40:09;;;;;;;;;;;;;;;19.69;49.36;99493.66;2060895;28;2504;-68
2024/04/02 01:41:09;;;;;;;;;;;;;;;19.70;49.15;99489.34;2049398;28;2603;-69
2024/04/02 01:42:10;;;;;;;;;;;;;;;19.69;49.19;99497.25;2052554;28;1573;-68
2024/04/02 01:43:10;;;;;;;;;;;;;;;19.69;49.16;99496.53;2054599;28;2702;-69
2024/04/02 01:44:10;;;;;;;;;;;;;;;19.69;49.12;99503.00;2060173;28;2879;-69
2024/04/02 01:45:11;;;;;;;;;;;;;;;19.67;49.19;99500.75;2060767;28;2360;-69
2024/04/02 01:46:13;;;;;;;;;;;;;;;19.69;49.22;99491.50;2048774;28;1854;-69
2024/04/02 01:47:13;;;;;;;;;;;;;;;19.69;49.17;99497.25;2053924;28;1637;-68
2024/04/02 01:48:13;;;;;;;;;;;;;;;19.69;49.14;99494.38;2051488;28;2727;-69
2024/04/02 01:49:14;;;;;;;;;;;;;;;19.69;49.27;99496.53;2058233;28;2288;-69
2024/04/02 01:50:14;;;;;;;;;;;;;;;19.67;49.14;99495.00;2056150;28;2693;-68
2024/04/02 01:51:15;;;;;;;;;;;;;;;19.67;49.11;99506.50;2056255;28;2626;-69
2024/04/02 01:52:15;;;;;;;;;;;;;;;19.67;49.13;99500.75;2049237;28;2783;-69
2024/04/02 01:53:15;;;;;;;;;;;;;;;19.66;49.21;99493.56;2057592;28;2438;-69
2024/04/02 01:54:16;;;;;;;;;;;;;;;19.67;49.12;99506.50;2058889;28;1702;-69
2024/04/02 01:55:16;;;;;;;;;;;;;;;19.67;49.10;99491.41;2051373;28;2317;-68
2024/04/02 01:56:17;;;;;;;;;;;;;;;19.67;49.25;99500.75;2050844;28;2371;-69
2024/04/02 01:57:17;;;;;;;;;;;;;;;19.67;49.19;99505.78;2053935;28;1881;-69
2024/04/02 01:58:17;;;;;;;;;;;;;;;19.67;49.09;99506.50;2052150;28;2616;-69
2024/04/02 01:59:18;;;;;;;;;;;;;;;19.68;49.09;99507.25;2057117;28;2967;-68
2024/04/02 02:00:18;;;;;;;;;;;;;;;19.68;49.15;99518.75;2060068;28;7229;-68
2024/04/02 02:01:19;;;;;;;;;;;;;;;19.69;49.22;99514.47;2050447;28;2874;-68
2024/04/02 02:02:19;;;;;;;;;;;;;;;19.67;49.28;99518.00;2051789;28;1664;-68
2024/04/02 02:03:19;;;;;;;;;;;;;;;19.68;49.09;99507.25;2059428;28;2715;-69
2024/04/02 02:04:20;;;;;;;;;;;;;;;19.67;49.09;99518.00;2059785;28;2745;-69
2024/04/02 02:05:20;;;;;;;;;;;;;;;19.66;49.12;99522.28;2052037;28;2328;-69
2024/04/02 02:06:21;;;;;;;;;;;;;;;19.66;49.20;99522.28;2057891;28;1908;-68
2024/04/02 02:07:21;;;;;;;;;;;;;;;19.66;49.23;99513.66;2055984;28;1806;-69
2024/04/02 02:08:21;;;;;;;;;;;;;;;19.66;49.06;99524.44;2047484;28;2476;-69
2024/04/02 02:09:22;;;;;;;;;;;;;;;19.67;49.07;99526.59;2052277;28;1693;-68
2024/04/02 02:10:22;;;;;;;;;;;;;;;19.66;49.12;99525.16;2047540;28;2651;-68
2024/04/02 02:11:23;;;;;;;;;;;;;;;19.66;49.22;99516.53;2053778;28;1950;-69
2024/04/02 02:12:23;;;;;;;;;;;;;;;19.65;49.13;99520.84;2053593;28;1969;-68
2024/04/02 02:13:23;;;;;;;;;;;;;;;19.66;49.31;99527.31;2048284;28;2863;-69
2024/04/02 02:14:24;;;;;;;;;;;;;;;19.66;49.06;99528.03;2054677;28;2581;-69
2024/04/02 02:15:24;;;;;;;;;;;;;;;19.66;49.16;99528.03;2065551;28;2727;-69
2024/04/02 02:16:26;;;;;;;;;;;;;;;19.65;49.02;99532.31;2056676;28;1920;-69
2024/04/02 02:17:26;;;;;;;;;;;;;;;19.66;49.19;99522.28;2049091;28;1877;-68
2024/04/02 02:18:28;;;;;;;;;;;;;;;19.64;49.18;99530.84;2047136;28;2352;-68
2024/04/02 02:19:29;;;;;;;;;;;;;;;19.65;49.08;99526.56;2052491;28;1953;-69
2024/04/02 02:20:29;;;;;;;;;;;;;;;19.64;49.16;99536.59;2049033;28;2773;-69
2024/04/02 02:21:30;;;;;;;;;;;;;;;19.64;49.24;99536.59;2052546;28;2099;-68
2024/04/02 02:22:30;;;;;;;;;;;;;;;19.65;49.18;99537.31;2053641;28;1703;-69
2024/04/02 02:23:30;;;;;;;;;;;;;;;19.65;49.13;99526.56;2060573;28;2510;-68
2024/04/02 02:24:31;;;;;;;;;;;;;;;19.64;49.17;99536.59;2056725;28;1980;-69
2024/04/02 02:25:31;;;;;;;;;;;;;;;19.64;49.20;99542.31;2049420;28;2395;-69
2024/04/02 02:26:32;;;;;;;;;;;;;;;19.65;49.17;99538.06;2050020;28;2575;-69
2024/04/02 02:27:33;;;;;;;;;;;;;;;19.64;49.01;99536.59;2053112;28;2642;-68
2024/04/02 02:28:33;;;;;;;;;;;;;;;19.64;49.19;99539.44;2052254;28;2337;-68
2024/04/02 02:29:34;;;;;;;;;;;;;;;19.64;49.13;99538.72;2061604;28;1674;-69
2024/04/02 02:30:34;;;;;;;;;;;;;;;19.63;49.27;99546.63;2057745;28;6055;-69
2024/04/02 02:31:38;;;;;;;;;;;;;;;19.63;49.24;99540.13;2052827;28;2411;-69
2024/04/02 02:32:39;;;;;;;;;;;;;;;19.63;49.09;99552.34;2059777;28;1631;-69
2024/04/02 02:33:39;;;;;;;;;;;;;;;19.63;49.27;99540.88;2057494;28;2695;-69
2024/04/02 02:34:39;;;;;;;;;;;;;;;19.63;49.23;99552.34;2059579;28;2697;-68
2024/04/02 02:35:40;;;;;;;;;;;;;;;19.63;49.15;99546.63;2056515;28;2340;-69
2024/04/02 02:36:40;;;;;;;;;;;;;;;19.63;49.17;99546.63;2053044;28;2570;-69
2024/04/02 02:37:40;;;;;;;;;;;;;;;19.62;49.06;99545.13;2050467;28;2376;-69
2024/04/02 02:38:41;;;;;;;;;;;;;;;19.62;49.01;99538.66;2057604;28;1944;-69
2024/04/02 02:39:41;;;;;;;;;;;;;;;19.63;49.18;99537.25;2063402;28;2309;-68
2024/04/02 02:40:42;;;;;;;;;;;;;;;19.61;49.21;99543.69;2056282;28;2387;-69
2024/04/02 02:41:45;;;;;;;;;;;;;;;19.62;49.16;99550.16;2049171;28;2504;-69
2024/04/02 02:42:45;;;;;;;;;;;;;;;19.61;49.22;99560.91;2048603;28;2961;-69
2024/04/02 02:43:45;;;;;;;;;;;;;;;19.62;49.24;99550.16;2052619;28;2343;-68
2024/04/02 02:44:46;;;;;;;;;;;;;;;19.61;49.07;99546.56;2053359;28;2476;-68
2024/04/02 02:45:50;;;;;;;;;;;;;;;19.63;49.23;99543.00;2050788;28;2508;-69
2024/04/02 02:46:50;;;;;;;;;;;;;;;19.63;49.24;99549.47;2050995;28;2514;-69
2024/04/02 02:47:50;;;;;;;;;;;;;;;19.64;49.25;99535.84;2053113;28;1886;-68
2024/04/02 02:48:51;;;;;;;;;;;;;;;19.65;49.15;99543.81;2060531;28;1728;-69
2024/04/02 02:49:51;;;;;;;;;;;;;;;19.65;49.22;99549.53;2052433;28;1715;-69
2024/04/02 02:50:52;;;;;;;;;;;;;;;19.65;49.06;99543.81;2053005;28;2067;-68
2024/04/02 02:51:52;;;;;;;;;;;;;;;19.67;49.02;99548.84;2059339;28;2285;-69
2024/04/02 02:52:52;;;;;;;;;;;;;;;19.66;49.21;99553.88;2053279;28;1850;-68
2024/04/02 02:53:53;;;;;;;;;;;;;;;19.67;49.06;99543.84;2051751;28;1664;-69
2024/04/02 02:54:53;;;;;;;;;;;;;;;19.69;49.07;99553.97;2050825;28;2602;-69
2024/04/02 02:55:54;;;;;;;;;;;;;;;19.69;49.08;99548.22;2050512;28;1603;-68
2024/04/02 02:56:54;;;;;;;;;;;;;;;19.70;49.11;99549.66;2060387;28;2311;-69
2024/04/02 02:57:55;;;;;;;;;;;;;;;19.69;49.13;99546.06;2059704;28;2223;-68
2024/04/02 02:58:55;;;;;;;;;;;;;;;19.70;49.19;99550.41;2056842;28;1780;-68
2024/04/02 02:59:55;;;;;;;;;;;;;;;19.70;49.03;99550.41;2059146;28;2736;-68
2024/04/02 03:00:56;;;;;;;;;;;;;;;19.72;49.24;99546.84;2058064;28;6240;-68
2024/04/02 03:01:56;;;;;;;;;;;;;;;19.71;49.05;99542.53;2047394;28;2396;-69
2024/04/02 03:02:57;;;;;;;;;;;;;;;19.71;49.06;99539.66;2047213;28;1672;-69
2024/04/02 03:03:57;;;;;;;;;;;;;;;19.71;49.02;99542.53;2056338;28;1716;-69
2024/04/02 03:04:57;;;;;;;;;;;;;;;19.71;49.16;99551.16;2058023;28;2426;-69
2024/04/02 03:05:58;;;;;;;;;;;;;;;19.71;49.16;99545.41;2053926;28;2631;-70
2024/04/02 03:06:58;;;;;;;;;;;;;;;19.71;49.07;99545.41;2050567;28;2225;-69
2024/04/02 03:07:59;;;;;;;;;;;;;;;19.71;49.28;99545.41;2054479;28;1745;-69
2024/04/02 03:08:59;;;;;;;;;;;;;;;19.71;49.23;99539.66;2050786;28;2505;-69
2024/04/02 03:10:00;;;;;;;;;;;;;;;19.71;49.33;99539.66;2058419;28;2675;-68
2024/04/02 03:11:04;;;;;;;;;;;;;;;19.71;49.31;99542.53;2057686;28;2442;-69
2024/04/02 03:12:04;;;;;;;;;;;;;;;19.71;49.34;99545.41;2059784;28;2555;-68
2024/04/02 03:13:05;;;;;;;;;;;;;;;19.70;49.42;99544.69;2054773;28;1874;-69
2024/04/02 03:14:05;;;;;;;;;;;;;;;19.71;49.50;99548.28;2058940;28;2405;-69
2024/04/02 03:15:05;;;;;;;;;;;;;;;19.71;49.38;99545.41;2060457;28;2372;-69
2024/04/02 03:16:06;;;;;;;;;;;;;;;19.71;49.32;99551.16;2054868;28;2213;-69
2024/04/02 03:17:06;;;;;;;;;;;;;;;19.71;49.38;99551.16;2056278;28;2705;-69
2024/04/02 03:18:07;;;;;;;;;;;;;;;19.70;49.34;99556.16;2063232;28;1765;-68
2024/04/02 03:19:07;;;;;;;;;;;;;;;19.71;49.21;99551.16;2052596;28;1917;-69
2024/04/02 03:20:08;;;;;;;;;;;;;;;19.72;49.34;99552.59;2058887;28;2496;-68
2024/04/02 03:21:12;;;;;;;;;;;;;;;19.72;49.51;99547.56;2052412;28;2445;-68
2024/04/02 03:22:12;;;;;;;;;;;;;;;19.72;49.45;99552.59;2052621;28;2576;-68
2024/04/02 03:23:13;;;;;;;;;;;;;;;19.73;49.20;99548.34;2062519;28;2644;-68
2024/04/02 03:24:13;;;;;;;;;;;;;;;19.73;49.32;99551.22;2056847;28;2758;-69
2024/04/02 03:25:14;;;;;;;;;;;;;;;19.74;49.30;99544.03;2051758;28;2519;-68
2024/04/02 03:26:14;;;;;;;;;;;;;;;19.73;49.47;99543.31;2059167;28;1940;-69
2024/04/02 03:27:14;;;;;;;;;;;;;;;19.75;49.34;99551.28;2065995;28;2461;-69
2024/04/02 03:28:15;;;;;;;;;;;;;;;19.75;49.20;99557.00;2058476;28;2733;-69
2024/04/02 03:29:15;;;;;;;;;;;;;;;19.75;49.23;99552.00;2053547;28;2881;-69
2024/04/02 03:30:16;;;;;;;;;;;;;;;19.76;49.23;99553.44;2056442;28;6896;-68
2024/04/02 03:31:16;;;;;;;;;;;;;;;19.77;49.34;99557.78;2056593;28;2478;-69
2024/04/02 03:32:16;;;;;;;;;;;;;;;19.77;49.16;99554.16;2053140;28;2032;-69
2024/04/02 03:33:17;;;;;;;;;;;;;;;19.78;49.38;99558.53;2056600;28;1845;-69
2024/04/02 03:34:17;;;;;;;;;;;;;;;19.78;49.29;99561.41;2059042;28;2176;-70
2024/04/02 03:35:17;;;;;;;;;;;;;;;19.78;49.38;99549.91;2049074;28;2746;-69
2024/04/02 03:36:18;;;;;;;;;;;;;;;19.77;49.03;99552.06;2060227;28;2898;-68
2024/04/02 03:37:18;;;;;;;;;;;;;;;19.78;49.26;99556.38;2057427;28;1877;-68
2024/04/02 03:38:19;;;;;;;;;;;;;;;19.77;49.20;99560.66;2048819;28;1835;-69
2024/04/02 03:39:20;;;;;;;;;;;;;;;19.78;49.27;99561.41;2048731;28;2575;-68
2024/04/02 03:40:20;;;;;;;;;;;;;;;19.78;49.27;99562.13;2052159;28;1969;-69
2024/04/02 03:41:20;;;;;;;;;;;;;;;19.78;49.36;99558.53;2061171;28;2751;-69
2024/04/02 03:42:21;;;;;;;;;;;;;;;19.78;49.33;99558.53;2050828;28;1922;-69
2024/04/02 03:43:21;;;;;;;;;;;;;;;19.79;49.37;99565.72;2058243;28;2598;-69
2024/04/02 03:44:22;;;;;;;;;;;;;;;19.78;49.34;99552.78;2058331;28;2381;-68
2024/04/02 03:45:22;;;;;;;;;;;;;;;19.78;49.40;99553.50;2053110;28;2539;-69
2024/04/02 03:46:22;;;;;;;;;;;;;;;19.77;49.44;99554.94;2058749;28;2434;-69
2024/04/02 03:47:23;;;;;;;;;;;;;;;19.77;49.41;99557.03;2061423;28;1719;-69
2024/04/02 03:48:23;;;;;;;;;;;;;;;19.77;49.46;99548.44;2051380;28;1692;-68
2024/04/02 03:49:24;;;;;;;;;;;;;;;19.77;49.43;99560.66;2055505;28;2461;-68
2024/04/02 03:50:24;;;;;;;;;;;;;;;19.77;49.44;99560.66;2059075;28;1607;-69
2024/04/02 03:51:24;;;;;;;;;;;;;;;19.77;49.45;99559.91;2052252;28;1869;-69
2024/04/02 03:52:25;;;;;;;;;;;;;;;19.76;49.57;99559.19;2060779;28;2306;-69
2024/04/02 03:53:25;;;;;;;;;;;;;;;19.76;49.51;99564.94;2063700;28;2402;-69
2024/04/02 03:54:26;;;;;;;;;;;;;;;19.77;49.70;99562.78;2050120;28;2817;-69
2024/04/02 03:55:26;;;;;;;;;;;;;;;19.75;49.56;99554.88;2053749;28;2588;-68
2024/04/02 03:56:27;;;;;;;;;;;;;;;19.77;49.61;99559.91;2052476;28;2374;-69
2024/04/02 03:57:27;;;;;;;;;;;;;;;19.76;49.64;99564.22;2057159;28;2579;-69
2024/04/02 03:58:29;;;;;;;;;;;;;;;19.76;49.70;99569.94;2058183;28;2883;-68
2024/04/02 03:59:29;;;;;;;;;;;;;;;19.77;49.56;99568.53;2046769;28;2611;-68
2024/04/02 04:00:30;;;;;;;;;;;;;;;19.77;49.62;99568.53;2050242;28;6183;-69
2024/04/02 04:01:30;;;;;;;;;;;;;;;19.77;49.53;99574.28;2050972;28;2790;-68
2024/04/02 04:02:31;;;;;;;;;;;;;;;19.78;49.62;99567.13;2059945;28;2657;-68
2024/04/02 04:03:31;;;;;;;;;;;;;;;19.78;49.44;99567.88;2060900;28;2402;-69
2024/04/02 04:04:31;;;;;;;;;;;;;;;19.78;49.53;99564.25;2050396;28;3133;-69
2024/04/02 04:05:32;;;;;;;;;;;;;;;19.78;49.49;99572.88;2050322;28;2850;-69
2024/04/02 04:06:32;;;;;;;;;;;;;;;19.79;49.64;99568.59;2050978;28;3029;-70
2024/04/02 04:07:33;;;;;;;;;;;;;;;19.80;49.49;99575.81;2049076;28;2459;-69
2024/04/02 04:08:34;;;;;;;;;;;;;;;19.80;49.45;99581.56;2050930;28;2865;-69
2024/04/02 04:09:34;;;;;;;;;;;;;;;19.80;49.45;99572.94;2050358;28;2484;-68
2024/04/02 04:10:35;;;;;;;;;;;;;;;19.81;49.47;99583.00;2051156;28;2374;-68
2024/04/02 04:11:35;;;;;;;;;;;;;;;19.82;49.54;99578.75;2054316;28;2064;-69
2024/04/02 04:12:36;;;;;;;;;;;;;;;19.82;49.50;99578.75;2046973;28;2501;-69
2024/04/02 04:13:36;;;;;;;;;;;;;;;19.82;49.61;99578.75;2050722;28;1578;-68
2024/04/02 04:14:37;;;;;;;;;;;;;;;19.82;49.52;99578.75;2051828;28;2728;-69
2024/04/02 04:15:37;;;;;;;;;;;;;;;19.83;49.65;99580.19;2051056;28;2710;-68
2024/04/02 04:16:37;;;;;;;;;;;;;;;19.82;49.59;99575.88;2054425;28;2421;-69
2024/04/02 04:17:38;;;;;;;;;;;;;;;19.82;49.69;99578.75;2057165;28;2732;-68
2024/04/02 04:18:38;;;;;;;;;;;;;;;19.82;49.54;99588.09;2058926;28;2127;-69
2024/04/02 04:19:39;;;;;;;;;;;;;;;19.83;49.56;99580.19;2048893;28;1633;-69
2024/04/02 04:20:39;;;;;;;;;;;;;;;19.83;49.69;99580.19;2054385;28;2343;-69
2024/04/02 04:21:40;;;;;;;;;;;;;;;19.82;49.44;99590.25;2049814;28;2998;-68
2024/04/02 04:22:40;;;;;;;;;;;;;;;19.83;49.50;99580.19;2051463;28;2615;-69
2024/04/02 04:23:41;;;;;;;;;;;;;;;19.82;49.59;99588.09;2059785;28;2589;-69
2024/04/02 04:24:42;;;;;;;;;;;;;;;19.82;49.63;99590.25;2058711;28;2414;-69
2024/04/02 04:25:42;;;;;;;;;;;;;;;19.82;49.60;99590.25;2052921;28;2477;-68
2024/04/02 04:26:43;;;;;;;;;;;;;;;19.81;49.50;99589.50;2049599;28;2371;-69
2024/04/02 04:27:46;;;;;;;;;;;;;;;19.82;49.65;99595.97;2050995;28;2924;-70
2024/04/02 04:28:46;;;;;;;;;;;;;;;19.82;49.60;99595.97;2060008;28;2644;-69
2024/04/02 04:29:47;;;;;;;;;;;;;;;19.82;49.72;99595.97;2053944;28;2697;-69
2024/04/02 04:30:54;;;;;;;;;;;;;;;19.81;49.79;99595.25;2056675;28;6308;-69
2024/04/02 04:31:54;;;;;;;;;;;;;;;19.80;49.68;99596.66;2057804;28;2609;-69
2024/04/02 04:32:54;;;;;;;;;;;;;;;19.80;49.72;99604.53;2056381;28;2618;-68
2024/04/02 04:33:55;;;;;;;;;;;;;;;19.80;49.84;99598.78;2049403;28;2640;-68
2024/04/02 04:34:55;;;;;;;;;;;;;;;19.79;49.69;99605.94;2054410;28;2356;-69
2024/04/02 04:35:56;;;;;;;;;;;;;;;19.81;49.80;99606.00;2052888;28;2587;-69
2024/04/02 04:36:57;;;;;;;;;;;;;;;19.80;49.92;99611.00;2050258;28;2407;-69
2024/04/02 04:37:57;;;;;;;;;;;;;;;19.80;49.84;99604.53;2050373;28;2296;-68
2024/04/02 04:38:58;;;;;;;;;;;;;;;19.71;49.90;99614.31;2051677;28;2291;-73
2024/04/02 04:39:59;;;;;;;;;;;;;;;19.52;50.03;99610.88;2059139;28;2574;-71
2024/04/02 04:40:59;;;;;;;;;;;;;;;19.54;49.97;99608.09;2050609;28;2537;-71
2024/04/02 04:42:00;;;;;;;;;;;;;;;19.58;50.08;99602.44;2052625;28;2574;-70
2024/04/02 04:43:00;;;;;;;;;;;;;;;19.66;50.08;99611.31;2057085;28;2546;-70
2024/04/02 04:44:01;;;;;;;;;;;;;;;19.73;50.05;99605.78;2059545;28;2503;-68
2024/04/02 04:45:01;;;;;;;;;;;;;;;19.79;50.21;99603.06;2054361;28;2276;-69
2024/04/02 04:46:03;;;;;;;;;;;;;;;19.82;49.82;99607.47;2058397;28;2561;-67
2024/04/02 04:47:04;;;;;;;;;;;;;;;19.82;49.77;99613.22;2052718;28;2520;-68
2024/04/02 04:48:05;;;;;;;;;;;;;;;19.81;49.84;99617.47;2053342;28;1609;-68
2024/04/02 04:49:06;;;;;;;;;;;;;;;19.81;49.72;99611.72;2059216;28;1627;-68
2024/04/02 04:50:06;;;;;;;;;;;;;;;19.80;49.75;99611.00;2060128;28;2145;-68
2024/04/02 04:51:07;;;;;;;;;;;;;;;19.82;49.68;99607.47;2051941;28;1688;-68
2024/04/02 04:52:07;;;;;;;;;;;;;;;19.82;49.81;99610.34;2053758;28;1902;-67
2024/04/02 04:53:08;;;;;;;;;;;;;;;19.82;49.60;99608.19;2055323;28;1692;-67
2024/04/02 04:54:08;;;;;;;;;;;;;;;19.83;49.63;99614.66;2049388;28;1711;-67
2024/04/02 04:55:10;;;;;;;;;;;;;;;19.83;49.66;99608.94;2059695;28;1680;-68
2024/04/02 04:56:10;;;;;;;;;;;;;;;19.83;49.72;99611.78;2058748;28;1639;-68
2024/04/02 04:57:10;;;;;;;;;;;;;;;19.84;49.75;99604.66;2052213;28;2041;-68
2024/04/02 04:58:11;;;;;;;;;;;;;;;19.84;49.65;99605.38;2054380;28;1767;-68
2024/04/02 04:59:11;;;;;;;;;;;;;;;19.84;49.58;99610.41;2061202;28;1714;-68
2024/04/02 05:00:12;;;;;;;;;;;;;;;19.84;49.76;99604.66;2057818;28;6029;-67
2024/04/02 05:01:14;;;;;;;;;;;;;;;19.85;49.68;99609.00;2048998;28;1632;-68
2024/04/02 05:02:14;;;;;;;;;;;;;;;19.84;49.54;99601.78;2056387;28;1837;-68
2024/04/02 05:03:14;;;;;;;;;;;;;;;19.85;49.69;99600.38;2056462;28;1634;-68
2024/04/02 05:04:15;;;;;;;;;;;;;;;19.85;49.69;99611.84;2060820;28;2030;-68
2024/04/02 05:05:15;;;;;;;;;;;;;;;19.84;49.59;99604.66;2052204;28;1850;-68
2024/04/02 05:06:16;;;;;;;;;;;;;;;19.84;49.76;99604.66;2049642;28;1681;-68
2024/04/02 05:07:24;;;;;;;;;;;;;;;19.83;49.71;99606.78;2053548;28;2156;-65
2024/04/02 05:08:25;;;;;;;;;;;;;;;19.84;49.81;99599.63;2054267;28;1854;-66
2024/04/02 05:09:26;;;;;;;;;;;;;;;19.84;49.81;99605.38;2054191;28;1957;-71
2024/04/02 05:10:26;;;;;;;;;;;;;;;19.84;49.90;99604.66;2053334;28;2041;-65
2024/04/02 05:11:27;;;;;;;;;;;;;;;19.83;49.89;99603.91;2060444;28;2044;-65
2024/04/02 05:12:27;;;;;;;;;;;;;;;19.84;49.67;99604.66;2060684;28;2224;-65
2024/04/02 05:13:28;;;;;;;;;;;;;;;19.84;49.75;99607.53;2053460;28;2167;-65
2024/04/02 05:14:28;;;;;;;;;;;;;;;19.83;49.70;99615.41;2052949;28;1554;-65
2024/04/02 05:15:29;;;;;;;;;;;;;;;19.84;49.96;99604.66;2058590;28;1769;-65
2024/04/02 05:16:29;;;;;;;;;;;;;;;19.83;49.66;99609.66;2058898;28;2433;-65
2024/04/02 05:17:31;;;;;;;;;;;;;;;19.84;49.94;99604.66;2052716;28;1748;-65
2024/04/02 05:18:31;;;;;;;;;;;;;;;19.83;49.75;99606.06;2052880;28;2100;-66
2024/04/02 05:19:32;;;;;;;;;;;;;;;19.82;49.82;99610.34;2051041;28;2013;-65
2024/04/02 05:20:32;;;;;;;;;;;;;;;19.82;49.95;99613.22;2061852;28;1778;-65